Time;durP1;ratioP1;P1;durP2;ratioP2;P2;SDS_P1;SDS_P2;PMS_P1;PMS_P2;Temp;Humidity;BMP_temperature;BMP_pressure;BME280_temperature;BME280_humidity;BME280_pressure;Samples;Min_cycle;Max_cycle;Signal;HPM_P1;HPM_P2
2022/11/28 00:00:52;;;;;;;108.33;56.87;;;5.30;99.90;;;;;;5058135;28;20216;-75
2022/11/28 00:03:40;;;;;;;107.53;55.53;;;5.30;99.90;;;;;;5054559;28;20221;-76
2022/11/28 00:06:29;;;;;;;106.10;55.13;;;5.50;99.90;;;;;;5057443;28;20222;-77
2022/11/28 00:09:21;;;;;;;104.00;53.10;;;5.60;99.90;;;;;;5055999;28;20311;-76
2022/11/28 00:12:09;;;;;;;110.90;56.53;;;5.50;99.90;;;;;;5054746;28;20303;-75
2022/11/28 00:14:58;;;;;;;105.17;54.47;;;5.40;99.90;;;;;;5057430;28;20231;-75
2022/11/28 00:17:47;;;;;;;105.60;53.97;;;5.30;99.90;;;;;;5056998;28;20223;-75
2022/11/28 00:20:35;;;;;;;103.73;53.97;;;5.50;99.90;;;;;;5054795;28;20232;-77
2022/11/28 00:23:24;;;;;;;105.73;54.53;;;5.60;99.90;;;;;;5048665;28;20739;-76
2022/11/28 00:26:16;;;;;;;99.37;53.87;;;5.50;99.90;;;;;;5064762;28;20346;-76
2022/11/28 00:29:05;;;;;;;111.97;54.90;;;5.50;99.90;;;;;;5050366;28;20228;-76
2022/11/28 00:31:53;;;;;;;102.90;54.20;;;5.50;99.90;;;;;;5052262;28;20220;-75
2022/11/28 00:34:42;;;;;;;112.27;57.37;;;5.60;99.90;;;;;;5050087;28;20235;-76
2022/11/28 00:37:31;;;;;;;112.47;56.53;;;5.60;99.90;;;;;;5057451;28;20225;-74
2022/11/28 00:40:20;;;;;;;106.80;55.87;;;5.40;99.90;;;;;;5054725;28;20268;-75
2022/11/28 00:43:10;;;;;;;107.20;57.23;;;5.40;99.90;;;;;;5060711;28;20270;-73
2022/11/28 00:45:59;;;;;;;106.10;56.07;;;5.50;99.90;;;;;;5054915;28;20235;-74
2022/11/28 00:48:48;;;;;;;113.90;56.40;;;5.50;99.90;;;;;;5056084;28;20289;-73
2022/11/28 00:51:37;;;;;;;108.30;56.47;;;5.50;99.90;;;;;;5054191;28;20596;-72
2022/11/28 00:54:25;;;;;;;108.80;56.80;;;5.60;99.90;;;;;;5061444;28;20247;-72
2022/11/28 00:57:14;;;;;;;105.17;57.60;;;5.70;99.90;;;;;;5053188;28;21582;-72
2022/11/28 01:00:05;;;;;;;110.93;58.17;;;5.60;99.90;;;;;;5051158;28;20224;-72
2022/11/28 01:02:54;;;;;;;115.03;57.43;;;5.50;99.90;;;;;;5053468;28;20235;-73
2022/11/28 01:05:43;;;;;;;117.63;58.77;;;5.50;99.90;;;;;;5051880;28;20213;-73
2022/11/28 01:08:31;;;;;;;109.83;57.60;;;5.50;99.90;;;;;;5047667;28;20363;-74
2022/11/28 01:11:21;;;;;;;118.30;59.67;;;5.50;99.90;;;;;;5050672;28;20837;-73
2022/11/28 01:14:11;;;;;;;112.53;58.17;;;5.30;99.90;;;;;;5058111;28;20232;-74
2022/11/28 01:17:01;;;;;;;126.43;62.23;;;5.20;99.90;;;;;;5053878;28;20221;-76
2022/11/28 01:19:50;;;;;;;127.30;60.50;;;5.10;99.90;;;;;;5057579;28;20303;-76
2022/11/28 01:22:38;;;;;;;115.60;59.53;;;5.20;99.90;;;;;;5049621;28;20315;-74
2022/11/28 01:25:27;;;;;;;119.43;59.60;;;5.20;99.90;;;;;;5050017;28;20236;-75
2022/11/28 01:28:16;;;;;;;116.20;59.93;;;5.20;99.90;;;;;;5048939;28;20248;-74
2022/11/28 01:31:06;;;;;;;118.43;59.30;;;5.10;99.90;;;;;;5050448;28;20227;-74
2022/11/28 01:33:57;;;;;;;125.67;60.93;;;5.00;99.90;;;;;;5052990;28;20233;-75
2022/11/28 01:36:46;;;;;;;124.00;60.53;;;5.20;99.90;;;;;;5055404;28;20235;-75
2022/11/28 01:39:35;;;;;;;117.27;59.10;;;5.30;99.90;;;;;;5051306;28;20216;-75
2022/11/28 01:42:23;;;;;;;121.77;59.43;;;5.30;99.90;;;;;;5052024;28;20221;-72
2022/11/28 01:45:16;;;;;;;125.00;59.73;;;5.10;99.90;;;;;;5056430;28;20912;-72
2022/11/28 01:48:07;;;;;;;119.37;59.57;;;5.10;99.90;;;;;;5050936;28;20231;-74
2022/11/28 01:50:59;;;;;;;118.57;57.87;;;5.00;99.90;;;;;;5053714;28;20531;-74
2022/11/28 01:53:49;;;;;;;116.00;58.53;;;5.10;99.90;;;;;;5055754;28;20256;-75
2022/11/28 01:56:43;;;;;;;125.60;58.07;;;4.90;99.90;;;;;;5055520;28;20224;-74
2022/11/28 01:59:34;;;;;;;117.40;57.10;;;5.10;99.90;;;;;;5054391;28;20231;-74
2022/11/28 02:02:26;;;;;;;113.57;55.47;;;5.20;99.90;;;;;;5051584;28;20240;-75
2022/11/28 02:05:18;;;;;;;114.97;58.43;;;5.20;99.90;;;;;;5058894;28;20733;-75
2022/11/28 02:08:09;;;;;;;121.17;57.87;;;5.30;99.90;;;;;;5049686;28;20226;-74
2022/11/28 02:11:16;;;;;;;111.00;56.87;;;5.20;99.90;;;;;;5053950;28;20224;-74
2022/11/28 02:14:15;;;;;;;110.50;55.73;;;5.10;99.90;;;;;;5057971;28;20714;-75
2022/11/28 02:17:14;;;;;;;108.27;55.33;;;5.10;99.90;;;;;;5055593;28;20229;-74
2022/11/28 02:20:38;;;;;;;117.07;56.37;;;5.20;99.90;;;;;;5055045;28;20216;-75
2022/11/28 02:23:38;;;;;;;121.60;57.60;;;5.10;99.90;;;;;;5056591;28;20618;-76
2022/11/28 02:26:53;;;;;;;114.97;55.70;;;5.10;99.90;;;;;;5058820;28;20255;-75
2022/11/28 02:30:02;;;;;;;116.27;56.80;;;5.20;99.90;;;;;;5056129;28;20228;-73
2022/11/28 02:33:13;;;;;;;116.97;55.83;;;5.10;99.90;;;;;;5057642;28;20315;-73
2022/11/28 02:36:10;;;;;;;119.20;56.50;;;5.20;99.90;;;;;;5054934;28;20229;-73
2022/11/28 02:39:11;;;;;;;110.17;53.43;;;5.10;99.90;;;;;;5059007;28;20244;-74
2022/11/28 02:42:05;;;;;;;113.90;56.47;;;5.00;99.90;;;;;;5053014;28;20228;-72
2022/11/28 02:44:59;;;;;;;114.47;55.67;;;5.00;99.90;;;;;;5053022;28;20209;-72
2022/11/28 02:47:52;;;;;;;115.67;55.67;;;5.20;99.90;;;;;;5051407;28;20220;-72
2022/11/28 02:50:50;;;;;;;104.80;53.10;;;5.20;99.90;;;;;;5057417;28;20228;-72
2022/11/28 02:53:40;;;;;;;104.57;51.23;;;5.20;99.90;;;;;;5055651;28;20267;-73
2022/11/28 02:56:28;;;;;;;113.07;54.77;;;5.10;99.90;;;;;;5055860;28;20223;-73
2022/11/28 02:59:32;;;;;;;110.90;53.53;;;5.20;99.90;;;;;;5058908;28;20311;-74
2022/11/28 03:02:27;;;;;;;110.77;53.93;;;5.00;99.90;;;;;;5056421;28;20247;-75
2022/11/28 03:05:20;;;;;;;114.53;54.00;;;5.10;99.90;;;;;;5058059;28;20232;-74
2022/11/28 03:08:31;;;;;;;111.20;54.47;;;5.00;99.90;;;;;;5054337;28;20574;-74
2022/11/28 03:11:28;;;;;;;113.53;54.73;;;4.90;99.90;;;;;;5056237;28;20258;-75
2022/11/28 03:14:28;;;;;;;113.17;53.17;;;4.60;99.90;;;;;;5054615;28;20216;-74
2022/11/28 03:17:25;;;;;;;116.90;54.97;;;4.60;99.90;;;;;;5056873;28;21118;-74
2022/11/28 03:20:21;;;;;;;114.27;52.73;;;4.80;99.90;;;;;;5056369;28;20275;-74
2022/11/28 03:23:16;;;;;;;110.60;51.70;;;4.90;99.90;;;;;;5051969;28;20235;-75
2022/11/28 03:26:10;;;;;;;119.80;53.47;;;5.00;99.90;;;;;;5054577;28;20228;-75
2022/11/28 03:29:04;;;;;;;117.03;54.13;;;4.90;99.90;;;;;;5055212;28;20233;-74
2022/11/28 03:31:57;;;;;;;117.87;53.43;;;4.90;99.90;;;;;;5057528;28;20224;-74
2022/11/28 03:34:50;;;;;;;111.10;52.87;;;4.80;99.90;;;;;;5056453;28;20217;-74
2022/11/28 03:37:44;;;;;;;105.80;52.73;;;4.80;99.90;;;;;;5061785;28;20208;-74
2022/11/28 03:40:39;;;;;;;105.80;52.57;;;4.80;99.90;;;;;;5053751;28;20232;-74
2022/11/28 03:43:32;;;;;;;110.90;52.40;;;4.80;99.90;;;;;;5056346;28;20228;-75
2022/11/28 03:46:24;;;;;;;106.63;52.03;;;4.90;99.90;;;;;;5057392;28;20251;-75
2022/11/28 03:49:15;;;;;;;107.43;52.03;;;4.90;99.90;;;;;;5056437;28;20227;-75
2022/11/28 03:52:06;;;;;;;103.77;51.83;;;4.80;99.90;;;;;;5057179;28;20263;-76
2022/11/28 03:54:59;;;;;;;112.93;52.70;;;4.80;99.90;;;;;;5051975;28;20578;-75
2022/11/28 03:57:54;;;;;;;111.30;51.73;;;4.80;99.90;;;;;;5055480;28;20315;-77
2022/11/28 04:00:51;;;;;;;109.33;52.27;;;4.80;99.90;;;;;;5056279;28;20227;-76
2022/11/28 04:03:50;;;;;;;107.57;50.97;;;4.90;99.90;;;;;;5055217;28;20247;-75
2022/11/28 04:06:52;;;;;;;110.53;52.23;;;4.90;99.90;;;;;;5058068;28;20722;-75
2022/11/28 04:09:47;;;;;;;105.27;51.40;;;4.80;99.90;;;;;;5053232;28;20233;-76
2022/11/28 04:12:46;;;;;;;108.60;50.03;;;4.80;99.90;;;;;;5047934;28;20221;-75
2022/11/28 04:15:43;;;;;;;101.40;48.63;;;4.70;99.90;;;;;;5059655;28;20216;-75
2022/11/28 04:18:43;;;;;;;103.23;49.83;;;4.70;99.90;;;;;;5058109;28;20220;-76
2022/11/28 04:21:37;;;;;;;101.00;49.03;;;4.50;99.90;;;;;;5051566;28;20207;-79
2022/11/28 04:24:29;;;;;;;98.73;48.63;;;4.60;99.90;;;;;;5054139;28;20256;-76
2022/11/28 04:27:22;;;;;;;94.37;47.53;;;4.70;99.90;;;;;;5056561;28;20224;-76
2022/11/28 04:30:12;;;;;;;89.40;46.97;;;4.60;99.90;;;;;;5055962;28;20225;-76
2022/11/28 04:33:08;;;;;;;102.97;48.43;;;4.60;99.90;;;;;;5056308;28;20305;-77
2022/11/28 04:35:58;;;;;;;100.37;47.87;;;4.50;99.90;;;;;;5054201;28;20346;-74
2022/11/28 04:38:55;;;;;;;99.70;46.17;;;4.50;99.90;;;;;;5053857;28;20224;-76
2022/11/28 04:41:51;;;;;;;102.37;47.90;;;4.40;99.90;;;;;;5055751;28;20228;-75
2022/11/28 04:44:47;;;;;;;103.40;48.73;;;4.40;99.90;;;;;;5053019;28;20749;-75
2022/11/28 04:47:36;;;;;;;100.87;47.87;;;4.40;99.90;;;;;;5053389;28;20702;-75
2022/11/28 04:50:32;;;;;;;101.30;48.23;;;4.50;99.90;;;;;;5054592;28;20221;-77
2022/11/28 04:53:27;;;;;;;102.93;48.60;;;4.60;99.90;;;;;;5051610;28;20263;-74
2022/11/28 04:56:22;;;;;;;96.13;47.23;;;4.50;99.90;;;;;;5052105;28;20258;-76
2022/11/28 04:59:12;;;;;;;99.57;45.50;;;4.40;99.90;;;;;;5054728;28;20235;-74
2022/11/28 05:02:04;;;;;;;99.67;48.50;;;4.40;99.90;;;;;;5052282;28;20728;-74
2022/11/28 05:04:54;;;;;;;103.17;46.33;;;4.50;99.90;;;;;;5051307;28;21919;-75
2022/11/28 05:07:44;;;;;;;96.77;46.50;;;4.50;99.90;;;;;;5046220;28;20595;-75
2022/11/28 05:10:33;;;;;;;93.93;46.00;;;4.50;99.90;;;;;;5053838;28;20223;-74
2022/11/28 05:13:22;;;;;;;88.50;45.27;;;4.50;99.90;;;;;;5053424;28;20243;-74
2022/11/28 05:16:12;;;;;;;93.50;45.07;;;4.40;99.90;;;;;;5067534;28;20816;-75
2022/11/28 05:19:01;;;;;;;86.40;45.27;;;4.50;99.90;;;;;;5053254;28;20228;-76
2022/11/28 05:21:51;;;;;;;84.77;43.57;;;4.50;99.90;;;;;;5053689;28;20561;-75
2022/11/28 05:24:42;;;;;;;79.60;42.43;;;4.60;99.90;;;;;;5056064;28;20694;-76
2022/11/28 05:27:31;;;;;;;87.20;44.53;;;4.40;99.90;;;;;;5052679;28;20262;-75
2022/11/28 05:30:19;;;;;;;81.97;41.67;;;4.40;99.90;;;;;;5050178;28;20217;-76
2022/11/28 05:33:08;;;;;;;86.63;43.03;;;4.40;99.90;;;;;;5057684;28;20235;-76
2022/11/28 05:35:56;;;;;;;87.33;44.70;;;4.50;99.90;;;;;;5058305;28;20278;-74
2022/11/28 05:38:45;;;;;;;85.33;43.43;;;4.40;99.90;;;;;;5055123;28;20858;-74
2022/11/28 05:41:35;;;;;;;91.63;45.97;;;4.50;99.90;;;;;;5057144;28;20216;-75
2022/11/28 05:44:24;;;;;;;92.27;46.27;;;4.30;99.90;;;;;;5055420;28;20229;-75
2022/11/28 05:47:15;;;;;;;99.40;46.60;;;4.30;99.90;;;;;;5051339;28;20240;-76
2022/11/28 05:50:04;;;;;;;98.33;47.63;;;4.30;99.90;;;;;;5056450;28;20232;-76
2022/11/28 05:52:53;;;;;;;98.97;48.53;;;4.20;99.90;;;;;;5070573;28;20239;-76
2022/11/28 05:55:42;;;;;;;97.70;49.13;;;4.40;99.90;;;;;;5057592;28;20212;-75
2022/11/28 05:58:32;;;;;;;97.80;47.73;;;4.50;99.90;;;;;;5057259;28;20228;-75
2022/11/28 06:01:23;;;;;;;99.93;48.67;;;4.20;99.90;;;;;;5050632;28;20232;-74
2022/11/28 06:04:11;;;;;;;101.50;48.40;;;4.20;99.90;;;;;;5052263;28;20251;-74
2022/11/28 06:07:00;;;;;;;105.77;48.70;;;4.20;99.90;;;;;;5055944;28;20227;-74
2022/11/28 06:09:49;;;;;;;98.73;47.53;;;4.20;99.90;;;;;;5055030;28;20243;-76
2022/11/28 06:12:37;;;;;;;100.37;48.13;;;4.30;99.90;;;;;;5055456;28;20223;-75
2022/11/28 06:15:27;;;;;;;96.50;45.27;;;4.50;99.90;;;;;;5053879;28;20219;-74
2022/11/28 06:18:19;;;;;;;91.83;45.30;;;4.40;99.90;;;;;;5050759;28;20235;-74
2022/11/28 06:21:10;;;;;;;93.60;46.67;;;4.40;99.90;;;;;;5055734;28;20370;-72
2022/11/28 06:23:59;;;;;;;89.90;45.13;;;4.20;99.90;;;;;;5052729;28;20231;-75
2022/11/28 06:26:48;;;;;;;99.30;45.73;;;4.40;99.90;;;;;;5053604;28;20491;-73
2022/11/28 06:29:37;;;;;;;91.40;44.87;;;4.40;99.90;;;;;;5049601;28;20243;-73
2022/11/28 06:32:27;;;;;;;96.57;46.53;;;4.30;99.90;;;;;;5050164;28;20591;-74
2022/11/28 06:35:15;;;;;;;100.77;46.43;;;4.30;99.90;;;;;;5059154;28;20220;-74
2022/11/28 06:38:04;;;;;;;91.20;46.03;;;4.20;99.90;;;;;;5056660;28;20728;-76
2022/11/28 06:40:59;;;;;;;104.27;46.77;;;4.30;99.90;;;;;;5059105;28;20240;-74
2022/11/28 06:43:48;;;;;;;103.33;47.57;;;4.30;99.90;;;;;;5056783;28;20232;-75
2022/11/28 06:46:37;;;;;;;100.00;47.23;;;4.20;99.90;;;;;;5054826;28;20734;-73
2022/11/28 06:49:26;;;;;;;99.30;45.90;;;4.20;99.90;;;;;;5058710;28;20695;-74
2022/11/28 06:52:15;;;;;;;97.90;46.37;;;4.20;99.90;;;;;;5056021;28;20670;-75
2022/11/28 06:55:04;;;;;;;99.23;46.93;;;4.30;99.90;;;;;;5058756;28;20221;-74
2022/11/28 06:57:53;;;;;;;93.90;44.10;;;4.30;99.90;;;;;;5057822;28;20242;-74
2022/11/28 07:00:41;;;;;;;84.20;42.43;;;4.30;99.90;;;;;;5057299;28;20229;-75
2022/11/28 07:03:30;;;;;;;80.70;40.87;;;4.20;99.90;;;;;;5054851;28;20385;-75
2022/11/28 07:06:20;;;;;;;85.30;42.47;;;4.10;99.90;;;;;;5053106;28;20232;-74
2022/11/28 07:09:09;;;;;;;84.87;42.50;;;4.20;99.90;;;;;;5051868;28;20229;-74
2022/11/28 07:11:58;;;;;;;94.50;43.03;;;4.10;99.90;;;;;;5053298;28;20216;-76
2022/11/28 07:14:47;;;;;;;88.20;43.43;;;4.10;99.90;;;;;;5076445;28;20223;-78
2022/11/28 07:17:36;;;;;;;87.27;41.43;;;4.00;99.90;;;;;;5059966;28;20235;-75
2022/11/28 07:20:24;;;;;;;90.10;43.50;;;3.90;99.90;;;;;;5059774;28;20362;-75
2022/11/28 07:23:14;;;;;;;93.07;43.07;;;4.00;99.90;;;;;;5057766;28;20212;-75
2022/11/28 07:26:04;;;;;;;90.83;41.43;;;4.20;99.90;;;;;;5055447;28;20231;-75
2022/11/28 07:28:54;;;;;;;81.00;39.00;;;4.10;99.90;;;;;;5055913;28;20224;-75
2022/11/28 07:31:43;;;;;;;103.60;51.00;;;4.00;99.90;;;;;;5052553;28;20228;-75
2022/11/28 07:34:32;;;;;;;85.37;40.47;;;4.00;99.90;;;;;;5062085;28;20228;-73
2022/11/28 07:37:21;;;;;;;89.43;40.97;;;4.00;99.90;;;;;;5054432;28;20228;-74
2022/11/28 07:40:12;;;;;;;89.50;42.50;;;4.00;99.90;;;;;;5051721;28;20228;-74
2022/11/28 07:43:01;;;;;;;83.27;40.33;;;4.10;99.90;;;;;;5062288;28;20243;-74
2022/11/28 07:45:49;;;;;;;80.47;39.27;;;4.10;99.90;;;;;;5057401;28;20227;-75
2022/11/28 07:48:49;;;;;;;82.33;42.57;;;4.30;99.90;;;;;;5056656;28;20306;-73
2022/11/28 07:51:38;;;;;;;78.73;39.43;;;4.50;99.90;;;;;;5058982;28;20707;-74
2022/11/28 07:54:26;;;;;;;93.63;42.57;;;4.40;99.90;;;;;;5058020;28;20251;-74
2022/11/28 07:57:16;;;;;;;93.17;43.17;;;3.90;99.90;;;;;;5055128;28;20585;-73
2022/11/28 08:00:07;;;;;;;92.80;42.07;;;4.40;99.90;;;;;;5057674;28;20302;-73
2022/11/28 08:02:59;;;;;;;85.70;41.23;;;4.10;99.90;;;;;;5052199;28;20227;-73
2022/11/28 08:05:49;;;;;;;79.23;39.77;;;4.10;99.90;;;;;;5071479;28;20228;-74
2022/11/28 08:08:38;;;;;;;92.40;41.23;;;4.30;99.90;;;;;;5053534;28;20225;-71
2022/11/28 08:11:28;;;;;;;80.90;39.03;;;4.10;99.90;;;;;;5054903;28;20228;-73
2022/11/28 08:14:18;;;;;;;84.63;40.67;;;4.10;99.90;;;;;;5055680;28;20229;-72
2022/11/28 08:17:07;;;;;;;77.60;38.53;;;4.20;99.90;;;;;;5056005;28;20236;-74
2022/11/28 08:19:56;;;;;;;80.77;39.67;;;4.10;99.90;;;;;;5068509;28;20224;-72
2022/11/28 08:22:44;;;;;;;78.73;38.87;;;4.20;99.90;;;;;;5055276;28;20235;-70
2022/11/28 08:25:33;;;;;;;83.20;38.70;;;4.30;99.90;;;;;;5052740;28;20220;-75
2022/11/28 08:28:22;;;;;;;75.27;38.13;;;4.30;99.90;;;;;;5056465;28;20381;-72
2022/11/28 08:31:14;;;;;;;83.70;39.13;;;4.30;99.90;;;;;;5051499;28;20221;-73
2022/11/28 08:34:05;;;;;;;78.10;38.17;;;4.50;99.90;;;;;;5049455;28;20224;-73
2022/11/28 08:36:54;;;;;;;74.20;35.73;;;4.40;99.90;;;;;;5054128;28;20208;-73
2022/11/28 08:39:43;;;;;;;78.67;37.60;;;4.40;99.90;;;;;;5056120;28;20212;-74
2022/11/28 08:42:32;;;;;;;82.33;41.30;;;4.30;99.90;;;;;;5052832;28;20224;-75
2022/11/28 08:45:21;;;;;;;76.77;37.83;;;4.30;99.90;;;;;;5051650;28;20782;-73
2022/11/28 08:48:11;;;;;;;79.90;37.40;;;4.60;99.90;;;;;;5052028;28;20224;-74
2022/11/28 08:50:59;;;;;;;79.77;38.33;;;4.60;99.90;;;;;;5056125;28;20732;-75
2022/11/28 08:53:48;;;;;;;78.27;38.23;;;4.60;99.90;;;;;;5047875;28;20228;-74
2022/11/28 08:56:47;;;;;;;77.20;37.00;;;4.60;99.90;;;;;;5053448;28;20229;-72
2022/11/28 08:59:36;;;;;;;81.47;39.70;;;4.50;99.90;;;;;;5056518;28;20220;-73
2022/11/28 09:02:25;;;;;;;71.03;36.33;;;4.60;99.90;;;;;;5048025;28;20231;-72
2022/11/28 09:05:15;;;;;;;73.50;35.33;;;4.60;99.90;;;;;;5052546;28;20251;-73
2022/11/28 09:08:04;;;;;;;73.40;36.37;;;4.70;99.90;;;;;;5051795;28;20230;-73
2022/11/28 09:10:58;;;;;;;76.53;37.53;;;4.80;99.90;;;;;;5064043;28;20277;-73
2022/11/28 09:13:48;;;;;;;73.37;36.37;;;4.80;99.90;;;;;;5050999;28;20224;-74
2022/11/28 09:16:38;;;;;;;75.63;37.03;;;4.80;99.90;;;;;;5053340;28;20247;-75
2022/11/28 09:19:27;;;;;;;71.53;36.00;;;4.80;99.90;;;;;;5049567;28;20555;-73
2022/11/28 09:22:17;;;;;;;72.47;36.13;;;4.90;99.90;;;;;;5054212;28;20249;-75
2022/11/28 09:25:07;;;;;;;70.90;35.87;;;4.90;99.90;;;;;;5054971;28;20217;-74
2022/11/28 09:27:56;;;;;;;72.50;34.93;;;5.00;99.90;;;;;;5056784;28;20586;-71
2022/11/28 09:30:44;;;;;;;75.03;36.97;;;5.00;99.90;;;;;;5064293;28;20231;-72
2022/11/28 09:33:33;;;;;;;68.67;36.43;;;5.00;99.90;;;;;;5058709;28;20219;-73
2022/11/28 09:36:24;;;;;;;71.73;36.60;;;4.80;99.90;;;;;;5059335;28;20221;-73
2022/11/28 09:39:14;;;;;;;76.03;37.47;;;5.10;99.90;;;;;;5050579;28;20744;-73
2022/11/28 09:42:11;;;;;;;64.03;34.90;;;5.00;99.90;;;;;;5051964;28;20243;-73
2022/11/28 09:45:05;;;;;;;65.67;34.57;;;4.90;99.90;;;;;;5046830;28;20240;-76
2022/11/28 09:47:57;;;;;;;62.70;34.13;;;5.10;99.90;;;;;;5037679;28;20227;-73
2022/11/28 09:50:46;;;;;;;56.53;31.50;;;5.00;99.90;;;;;;5045387;28;20625;-74
2022/11/28 09:53:43;;;;;;;56.03;30.33;;;4.80;99.90;;;;;;5054748;28;20232;-73
2022/11/28 09:56:33;;;;;;;59.90;31.10;;;4.80;99.90;;;;;;5036039;28;20235;-75
2022/11/28 09:59:26;;;;;;;62.33;31.63;;;4.80;99.90;;;;;;5037832;28;20232;-74
2022/11/28 10:02:25;;;;;;;55.27;31.17;;;5.00;99.90;;;;;;5046995;28;20316;-74
2022/11/28 10:05:23;;;;;;;56.40;30.30;;;5.10;99.90;;;;;;5053178;28;20226;-75
2022/11/28 10:08:22;;;;;;;54.07;29.97;;;5.00;99.90;;;;;;5055291;28;20221;-74
2022/11/28 10:11:24;;;;;;;60.63;31.27;;;5.10;99.90;;;;;;5050863;28;20216;-73
2022/11/28 10:14:36;;;;;;;61.07;32.83;;;5.10;99.90;;;;;;5053187;28;20226;-76
2022/11/28 10:17:34;;;;;;;57.73;30.40;;;5.10;99.90;;;;;;5048369;28;20703;-74
2022/11/28 10:20:27;;;;;;;53.13;28.17;;;5.10;99.90;;;;;;5051785;28;20247;-74
2022/11/28 10:23:23;;;;;;;57.47;30.03;;;5.10;99.90;;;;;;5039018;28;20223;-75
2022/11/28 10:26:18;;;;;;;51.17;28.20;;;5.10;99.90;;;;;;5036264;28;20220;-75
2022/11/28 10:29:19;;;;;;;52.40;28.13;;;5.20;99.90;;;;;;5036678;28;20739;-75
2022/11/28 10:32:16;;;;;;;55.60;29.63;;;5.10;99.90;;;;;;5050318;28;20231;-74
2022/11/28 10:35:11;;;;;;;53.20;28.47;;;5.20;99.90;;;;;;5050741;28;20774;-75
2022/11/28 10:38:00;;;;;;;58.70;31.20;;;5.10;99.90;;;;;;5048520;28;20243;-74
2022/11/28 10:40:54;;;;;;;50.87;29.03;;;5.20;99.90;;;;;;5038969;28;20220;-76
2022/11/28 10:43:49;;;;;;;49.43;26.97;;;5.20;99.90;;;;;;5046808;28;20223;-75
2022/11/28 10:46:48;;;;;;;56.20;28.50;;;5.10;99.90;;;;;;5032831;28;20224;-74
2022/11/28 10:49:49;;;;;;;48.87;26.67;;;5.10;99.90;;;;;;5052853;28;20220;-75
2022/11/28 10:52:45;;;;;;;47.50;25.97;;;5.10;99.90;;;;;;5034962;28;20267;-75
2022/11/28 10:55:45;;;;;;;47.13;26.27;;;5.10;99.90;;;;;;5037279;28;20229;-75
2022/11/28 10:58:42;;;;;;;45.33;25.60;;;5.10;99.90;;;;;;5050989;28;20319;-75
2022/11/28 11:01:36;;;;;;;46.53;25.30;;;5.20;99.90;;;;;;5048325;28;20217;-76
2022/11/28 11:04:27;;;;;;;49.53;27.23;;;4.90;99.90;;;;;;5041895;28;20243;-75
2022/11/28 11:07:22;;;;;;;50.70;26.27;;;4.90;99.90;;;;;;5033856;28;20341;-74
2022/11/28 11:10:19;;;;;;;52.73;26.37;;;4.80;99.90;;;;;;5034471;28;20241;-75
2022/11/28 11:13:15;;;;;;;51.80;26.17;;;4.70;99.90;;;;;;5053120;28;20216;-76
2022/11/28 11:16:06;;;;;;;53.10;27.27;;;4.80;99.90;;;;;;5049514;28;20232;-75
2022/11/28 11:18:55;;;;;;;50.77;28.57;;;5.00;99.90;;;;;;5040202;28;20227;-75
2022/11/28 11:22:02;;;;;;;48.47;27.07;;;4.90;99.90;;;;;;5040362;28;21026;-75
2022/11/28 11:25:18;;;;;;;56.33;28.40;;;5.10;99.90;;;;;;5052551;28;20220;-76
2022/11/28 11:28:24;;;;;;;60.77;30.63;;;4.90;99.90;;;;;;5040866;28;20260;-77
2022/11/28 11:31:22;;;;;;;56.67;29.33;;;4.80;99.90;;;;;;5053981;28;20999;-76
2022/11/28 11:34:17;;;;;;;49.83;27.10;;;4.90;99.90;;;;;;5053865;28;20231;-76
2022/11/28 11:37:31;;;;;;;57.03;28.77;;;5.00;99.90;;;;;;5047838;28;21661;-75
2022/11/28 11:40:29;;;;;;;59.43;30.13;;;5.00;99.90;;;;;;5051057;28;20247;-75
2022/11/28 11:43:26;;;;;;;60.27;30.40;;;5.00;99.90;;;;;;5057786;28;20224;-76
2022/11/28 11:46:16;;;;;;;57.93;30.90;;;4.90;99.90;;;;;;5051593;28;20700;-75
2022/11/28 11:49:05;;;;;;;56.63;28.67;;;4.90;99.90;;;;;;5055887;28;21070;-75
2022/11/28 11:51:57;;;;;;;52.83;27.70;;;4.90;99.90;;;;;;5056448;28;20231;-77
2022/11/28 11:54:58;;;;;;;64.67;31.83;;;5.00;99.90;;;;;;5051445;28;20253;-74
2022/11/28 11:57:52;;;;;;;58.93;29.87;;;5.10;99.90;;;;;;5057716;28;20739;-76
2022/11/28 12:00:42;;;;;;;59.33;32.67;;;4.90;99.90;;;;;;5041840;28;20224;-75
2022/11/28 12:03:36;;;;;;;65.87;32.60;;;5.10;99.90;;;;;;5042106;28;20311;-75
2022/11/28 12:06:29;;;;;;;63.93;32.73;;;4.80;99.90;;;;;;5041994;28;20228;-75
2022/11/28 12:09:28;;;;;;;60.13;31.27;;;4.70;99.90;;;;;;5042100;28;20247;-75
2022/11/28 12:12:21;;;;;;;63.00;31.40;;;4.80;99.90;;;;;;5055858;28;20232;-76
2022/11/28 12:15:20;;;;;;;59.67;31.03;;;4.80;99.90;;;;;;5054262;28;20224;-76
2022/11/28 12:18:19;;;;;;;58.73;30.93;;;4.60;99.90;;;;;;5054552;28;20236;-76
2022/11/28 12:21:14;;;;;;;62.93;30.97;;;4.70;99.90;;;;;;5055214;28;21084;-77
2022/11/28 12:24:09;;;;;;;65.93;32.23;;;4.90;99.90;;;;;;5055094;28;20216;-77
2022/11/28 12:27:06;;;;;;;64.63;32.50;;;5.00;99.90;;;;;;5045587;28;20220;-73
2022/11/28 12:30:04;;;;;;;63.20;33.30;;;4.90;99.90;;;;;;5045046;28;20217;-76
2022/11/28 12:33:10;;;;;;;65.07;31.87;;;4.90;99.90;;;;;;5057126;28;20216;-74
2022/11/28 12:36:13;;;;;;;66.97;32.43;;;4.80;99.90;;;;;;5038952;28;20244;-75
2022/11/28 12:39:17;;;;;;;63.57;33.20;;;5.00;99.90;;;;;;5040756;28;20227;-76
2022/11/28 12:42:22;;;;;;;63.13;32.60;;;4.80;99.90;;;;;;5039720;28;20299;-75
2022/11/28 12:45:27;;;;;;;63.03;32.67;;;4.80;99.90;;;;;;5055161;28;20213;-75
2022/11/28 12:48:41;;;;;;;59.33;29.70;;;4.90;99.90;;;;;;5041030;28;20227;-75
2022/11/28 12:51:44;;;;;;;59.60;31.17;;;4.90;99.90;;;;;;5045317;28;20561;-74
2022/11/28 13:09:30;;;;;;;55.77;28.47;;;4.60;99.90;;;;;;5012349;27;20684;-72
2022/11/28 13:12:27;;;;;;;59.23;29.37;;;4.80;99.90;;;;;;4990938;28;20223;-73
2022/11/28 13:15:25;;;;;;;58.67;28.73;;;4.80;99.90;;;;;;5008001;28;20712;-74
2022/11/28 13:18:33;;;;;;;58.63;27.37;;;4.70;99.90;;;;;;5017487;28;20228;-73
2022/11/28 13:21:31;;;;;;;61.30;26.90;;;4.90;99.90;;;;;;5006631;28;20214;-73
2022/11/28 13:24:28;;;;;;;51.40;26.07;;;4.90;99.90;;;;;;5013290;28;20230;-72
2022/11/28 13:27:23;;;;;;;56.47;27.70;;;4.90;99.90;;;;;;5009664;28;20234;-73
2022/11/28 13:30:17;;;;;;;59.90;26.37;;;5.10;99.90;;;;;;4999122;28;20248;-73
2022/11/28 13:33:12;;;;;;;55.47;26.90;;;4.90;99.90;;;;;;5003868;28;20882;-73
2022/11/28 13:36:02;;;;;;;65.30;27.83;;;4.70;99.90;;;;;;5001728;28;20226;-73
2022/11/28 13:38:58;;;;;;;63.90;28.33;;;4.70;99.90;;;;;;5023013;28;20316;-74
2022/11/28 13:42:13;;;;;;;55.40;26.07;;;4.70;99.90;;;;;;5012826;28;20226;-73
2022/11/28 13:45:24;;;;;;;60.50;26.37;;;4.70;99.90;;;;;;5016861;28;20297;-73
2022/11/28 13:49:00;;;;;;;60.07;28.10;;;4.80;99.90;;;;;;5020539;28;20229;-73
2022/11/28 13:52:33;;;;;;;54.67;25.33;;;4.90;99.90;;;;;;4998675;28;20226;-73
2022/11/28 13:55:43;;;;;;;56.33;25.23;;;4.90;99.90;;;;;;4991921;28;20219;-72
2022/11/28 13:58:41;;;;;;;54.23;26.40;;;5.00;99.90;;;;;;5005410;28;20221;-73
2022/11/28 14:01:31;;;;;;;64.57;28.90;;;4.80;99.90;;;;;;5012929;28;20222;-73
2022/11/28 14:04:21;;;;;;;62.20;28.30;;;4.70;99.90;;;;;;5024674;28;20224;-73
2022/11/28 14:07:22;;;;;;;63.17;28.03;;;4.60;99.90;;;;;;5002562;28;20384;-73
2022/11/28 14:10:39;;;;;;;62.77;28.53;;;4.70;99.90;;;;;;5007342;28;20221;-74
2022/11/28 14:13:55;;;;;;;63.33;28.03;;;4.80;99.90;;;;;;5010132;28;20295;-74
2022/11/28 14:17:00;;;;;;;62.03;28.13;;;4.70;99.90;;;;;;5008483;28;20300;-73
2022/11/28 14:20:00;;;;;;;61.27;25.97;;;4.50;99.90;;;;;;5019464;28;20228;-73
2022/11/28 14:23:02;;;;;;;58.50;27.37;;;4.50;99.90;;;;;;5008567;28;20288;-73
2022/11/28 14:25:53;;;;;;;64.20;27.07;;;4.60;99.90;;;;;;5001328;28;20227;-74
2022/11/28 14:28:45;;;;;;;55.03;26.13;;;4.60;99.90;;;;;;5003273;28;20229;-75
2022/11/28 14:31:37;;;;;;;55.50;26.13;;;4.50;99.90;;;;;;5023035;28;20221;-74
2022/11/28 14:34:44;;;;;;;56.37;26.43;;;4.60;99.90;;;;;;5004469;28;20221;-75
2022/11/28 14:37:56;;;;;;;52.83;24.80;;;4.70;99.90;;;;;;5010568;28;20218;-76
2022/11/28 14:41:10;;;;;;;55.80;24.70;;;4.90;99.90;;;;;;5019431;28;20217;-75
2022/11/28 14:44:28;;;;;;;54.70;25.13;;;4.80;99.90;;;;;;5009337;28;20301;-74
2022/11/28 14:47:27;;;;;;;55.90;24.80;;;4.80;99.90;;;;;;5036913;28;20230;-74
2022/11/28 14:50:59;;;;;;;54.80;24.40;;;4.60;99.90;;;;;;5023527;28;20232;-72
2022/11/28 14:53:51;;;;;;;51.13;23.60;;;4.60;99.90;;;;;;4993535;28;20222;-73
2022/11/28 14:56:41;;;;;;;53.70;24.67;;;4.70;99.90;;;;;;5011918;28;20251;-72
2022/11/28 14:59:34;;;;;;;51.23;24.23;;;4.70;99.90;;;;;;5047424;28;20549;-72
2022/11/28 15:02:35;;;;;;;60.37;26.43;;;4.80;99.90;;;;;;5036649;28;20754;-73
2022/11/28 15:05:43;;;;;;;56.83;24.60;;;4.70;99.90;;;;;;5017928;28;20703;-73